LFKJ 221130Z AUTO 23007KT 9999 FEW031 16/10 Q1032 NOSIG

ElémentsDécodage
LFKJ Station météo située sur l'aérodrome de AJACCIO Campo dell'Oro
221130Z émis le 22 du mois à 11h30 UTC
AUTO Bulletin édité par un automate
23007KT vent du 230°, 07 noeuds
9999 visibilité horizontale supérieure à 10 Km
FEW031 nuages rares (1/8 à 2/8) à 3100 pieds
16/10 température 16°C, point de rosée 10°C
 soit une humidité relative de 68%
Q1032 la pression au niveau de la mer (QNH) est de 1032 hPa
NOSIG Pas de changement significatif prévu au cours des deux heures suivant l'heure de l'observation